Time;durP1;ratioP1;P1;durP2;ratioP2;P2;SDS_P1;SDS_P2;PMS_P1;PMS_P2;Temp;Humidity;BMP_temperature;BMP_pressure;BME280_temperature;BME280_humidity;BME280_pressure;Samples;Min_cycle;Max_cycle;Signal;HPM_P1;HPM_P2
2022/11/27 04:55:51;;;;;;;10.83;7.63;;;;;;;0.94;100.00;100633.69;6275546;22;21443;-82
2022/11/27 04:58:21;;;;;;;10.13;8.50;;;;;;;0.94;100.00;100630.22;6333938;22;20187;-82
2022/11/27 05:00:59;;;;;;;11.27;8.03;;;;;;;0.84;100.00;100643.41;6296282;22;20213;-83
2022/11/27 05:03:28;;;;;;;10.07;8.03;;;;;;;0.80;100.00;100626.13;6306467;22;20191;-83
2022/11/27 05:05:57;;;;;;;10.20;8.23;;;;;;;0.74;100.00;100646.00;6281485;22;20187;-83
2022/11/27 05:08:30;;;;;;;11.53;8.03;;;;;;;0.70;100.00;100630.56;6332164;22;20191;-83
2022/11/27 05:11:07;;;;;;;12.27;8.00;;;;;;;0.75;100.00;100652.91;6282186;22;20247;-83
2022/11/27 05:13:35;;;;;;;10.90;8.50;;;;;;;0.72;100.00;100612.78;6306893;22;20203;-83
2022/11/27 05:16:04;;;;;;;11.70;8.27;;;;;;;0.69;100.00;100637.63;6305728;22;20209;-82
2022/11/27 05:18:31;;;;;;;10.23;8.50;;;;;;;0.63;100.00;100632.03;6333060;22;20187;-82
2022/11/27 05:21:01;;;;;;;12.10;8.73;;;;;;;0.65;100.00;100625.69;6281623;22;20207;-83
2022/11/27 05:23:33;;;;;;;14.07;8.50;;;;;;;0.63;100.00;100617.06;6307476;22;20207;-83
2022/11/27 05:26:04;;;;;;;10.97;8.83;;;;;;;0.78;100.00;100607.81;6257579;22;20194;-83
2022/11/27 05:28:32;;;;;;;11.73;8.83;;;;;;;0.85;100.00;100618.66;6273218;22;20204;-82
2022/11/27 05:31:02;;;;;;;12.20;8.83;;;;;;;0.76;100.00;100628.22;6249771;22;20199;-82
2022/11/27 05:33:35;;;;;;;12.23;8.33;;;;;;;0.68;100.00;100628.06;6306091;22;20191;-83
2022/11/27 05:36:03;;;;;;;9.97;7.87;;;;;;;0.64;100.00;100628.44;6279065;22;20187;-83
2022/11/27 05:38:32;;;;;;;9.70;8.30;;;;;;;0.58;100.00;100613.97;6252655;22;20191;-83
2022/11/27 05:41:00;;;;;;;10.23;8.43;;;;;;;0.57;100.00;100616.75;6252517;22;20240;-83
2022/11/27 05:43:29;;;;;;;10.43;8.13;;;;;;;0.48;100.00;100618.38;6277345;22;20192;-83
2022/11/27 05:45:56;;;;;;;11.33;8.17;;;;;;;0.50;100.00;100618.25;6302428;22;20204;-82
2022/11/27 05:48:24;;;;;;;11.50;8.93;;;;;;;0.47;100.00;100616.69;6250748;22;20230;-82
2022/11/27 05:50:52;;;;;;;14.30;8.73;;;;;;;0.36;100.00;100620.25;6275441;22;20208;-83
2022/11/27 05:53:20;;;;;;;14.87;8.80;;;;;;;0.33;100.00;100627.56;6224139;22;20225;-82
2022/11/27 05:55:47;;;;;;;12.83;9.03;;;;;;;0.24;100.00;100623.91;6241461;22;20204;-83
2022/11/27 05:58:15;;;;;;;14.03;10.17;;;;;;;0.32;100.00;100631.19;6242792;23;20212;-84
2022/11/27 06:00:44;;;;;;;13.40;10.70;;;;;;;0.21;100.00;100615.44;6248627;23;20209;-80
2022/11/27 06:03:17;;;;;;;15.00;11.30;;;;;;;0.13;100.00;100613.47;6269765;22;20201;-81
2022/11/27 06:05:49;;;;;;;13.30;11.07;;;;;;;0.15;100.00;100621.22;6269421;23;20771;-80
2022/11/27 06:08:16;;;;;;;17.90;12.47;;;;;;;0.13;100.00;100628.44;6269934;22;20189;-80
2022/11/27 06:10:44;;;;;;;14.67;11.87;;;;;;;0.11;100.00;100630.34;6270520;23;20209;-80
2022/11/27 06:13:11;;;;;;;15.40;12.03;;;;;;;0.10;100.00;100642.69;6270020;22;20257;-80
2022/11/27 06:15:39;;;;;;;18.20;12.27;;;;;;;0.07;100.00;100635.03;6250102;22;20390;-80
2022/11/27 06:18:07;;;;;;;16.20;11.33;;;;;;;0.14;100.00;100649.38;6223842;23;20208;-82
2022/11/27 06:20:34;;;;;;;14.27;11.03;;;;;;;0.15;100.00;100658.13;6220777;23;20200;-82
2022/11/27 06:23:09;;;;;;;16.57;11.87;;;;;;;0.10;100.00;100652.38;6247337;23;20204;-80
2022/11/27 06:25:36;;;;;;;12.23;9.73;;;;;;;0.17;100.00;100646.50;6270685;23;20204;-82
2022/11/27 06:28:04;;;;;;;12.73;10.07;;;;;;;0.19;100.00;100641.06;6243980;23;20208;-79
2022/11/27 06:30:36;;;;;;;13.03;9.90;;;;;;;0.14;100.00;100648.56;6246162;23;20199;-82
2022/11/27 06:33:11;;;;;;;12.20;9.67;;;;;;;0.13;100.00;100660.06;6246675;23;20192;-82
2022/11/27 06:35:40;;;;;;;15.83;10.17;;;;;;;0.20;100.00;100663.84;6272997;23;20192;-82
2022/11/27 06:38:11;;;;;;;13.07;9.90;;;;;;;0.17;100.00;100659.66;6223470;23;20216;-82
2022/11/27 06:40:41;;;;;;;11.20;9.13;;;;;;;0.27;100.00;100659.75;6247997;23;20236;-84
2022/11/27 06:43:12;;;;;;;15.83;9.57;;;;;;;0.33;100.00;100659.19;6149255;23;20197;-83
2022/11/27 06:45:40;;;;;;;11.90;8.77;;;;;;;0.40;100.00;100652.47;6246985;23;20231;-83
2022/11/27 06:48:07;;;;;;;11.33;9.03;;;;;;;0.52;100.00;100654.03;6271040;23;20201;-83
2022/11/27 06:50:35;;;;;;;11.37;8.93;;;;;;;0.64;100.00;100646.91;6246181;23;20204;-82
2022/11/27 06:53:02;;;;;;;10.77;8.40;;;;;;;0.66;100.00;100647.59;6245637;23;20224;-82
2022/11/27 06:55:29;;;;;;;13.73;9.63;;;;;;;0.79;100.00;100643.75;6261436;22;20228;-80
2022/11/27 06:57:56;;;;;;;12.90;9.17;;;;;;;0.93;100.00;100658.44;6297666;22;20207;-79
2022/11/27 07:00:22;;;;;;;11.03;9.00;;;;;;;1.03;100.00;100654.00;6307288;22;20203;-79
2022/11/27 07:02:53;;;;;;;11.93;8.93;;;;;;;1.22;100.00;100651.41;6308039;22;20207;-79
2022/11/27 07:05:19;;;;;;;13.00;9.30;;;;;;;1.35;100.00;100651.19;6308231;22;20211;-80
2022/11/27 07:07:46;;;;;;;13.00;9.40;;;;;;;1.50;100.00;100656.91;6307767;22;20199;-79
2022/11/27 07:10:12;;;;;;;12.27;9.07;;;;;;;1.62;100.00;100656.66;6307252;22;20211;-80
2022/11/27 07:12:39;;;;;;;10.97;8.97;;;;;;;1.84;100.00;100662.63;6307870;22;20210;-80
2022/11/27 07:15:06;;;;;;;12.63;9.60;;;;;;;1.98;100.00;100649.84;6308125;22;20265;-79
2022/11/27 07:17:33;;;;;;;11.80;8.93;;;;;;;2.18;100.00;100655.97;6307813;22;20203;-79
2022/11/27 07:20:00;;;;;;;11.10;8.57;;;;;;;2.29;100.00;100647.84;6308095;22;20644;-79
2022/11/27 07:22:26;;;;;;;10.67;8.60;;;;;;;2.42;100.00;100648.41;6307316;22;20669;-79
2022/11/27 07:24:54;;;;;;;11.13;8.03;;;;;;;2.50;100.00;100647.69;6307566;22;20206;-79
2022/11/27 07:27:20;;;;;;;12.17;8.70;;;;;;;2.58;100.00;100648.63;6307810;22;20203;-79
2022/11/27 07:29:47;;;;;;;10.80;8.37;;;;;;;2.68;100.00;100648.59;6307762;22;20226;-79
2022/11/27 07:32:14;;;;;;;10.37;8.23;;;;;;;2.73;100.00;100649.00;6307425;22;20199;-79
2022/11/27 07:34:40;;;;;;;10.00;7.77;;;;;;;2.87;100.00;100655.66;6307865;22;20210;-79
2022/11/27 07:37:10;;;;;;;8.63;7.73;;;;;;;2.97;100.00;100653.78;6309419;22;20203;-80
2022/11/27 07:39:37;;;;;;;11.00;8.60;;;;;;;3.18;100.00;100661.50;6311207;22;20231;-81
2022/11/27 07:42:24;;;;;;;14.07;10.27;;;;;;;3.37;100.00;100658.75;6308933;22;20203;-80
2022/11/27 07:45:07;;;;;;;11.03;9.10;;;;;;;3.50;100.00;100662.69;6286970;22;20256;-80
2022/11/27 07:47:34;;;;;;;10.63;8.77;;;;;;;3.68;100.00;100661.91;6310159;22;20210;-80
2022/11/27 07:50:01;;;;;;;12.13;9.43;;;;;;;3.80;100.00;100656.22;6281485;22;20206;-79
2022/11/27 07:52:27;;;;;;;12.57;10.40;;;;;;;3.91;100.00;100661.31;6308844;22;20222;-80
2022/11/27 07:54:54;;;;;;;12.70;10.53;;;;;;;4.02;100.00;100652.25;6310658;22;20213;-81
2022/11/27 07:57:21;;;;;;;15.10;11.30;;;;;;;4.21;100.00;100652.09;6309477;22;20663;-81
2022/11/27 07:59:47;;;;;;;11.73;10.50;;;;;;;4.39;100.00;100652.06;6309883;22;20226;-81
2022/11/27 08:02:14;;;;;;;11.97;9.27;;;;;;;4.49;100.00;100652.81;6309466;22;20254;-81
2022/11/27 08:04:41;;;;;;;18.83;15.03;;;;;;;4.65;100.00;100652.91;6282820;22;20283;-80
2022/11/27 08:07:08;;;;;;;12.67;11.27;;;;;;;4.80;100.00;100648.69;6309684;22;20234;-80
2022/11/27 08:09:36;;;;;;;9.13;7.70;;;;;;;4.93;100.00;100639.47;6310195;22;20203;-80
2022/11/27 08:12:03;;;;;;;10.03;8.70;;;;;;;5.04;100.00;100644.50;6310263;22;20207;-80
2022/11/27 08:14:30;;;;;;;9.07;8.17;;;;;;;5.14;100.00;100643.34;6283420;22;20203;-80
2022/11/27 08:16:57;;;;;;;15.13;11.33;;;;;;;5.20;100.00;100644.56;6310924;22;20203;-80
2022/11/27 08:19:24;;;;;;;12.70;9.73;;;;;;;5.26;100.00;100649.22;6310897;22;20211;-80
2022/11/27 08:21:50;;;;;;;11.30;9.60;;;;;;;5.24;100.00;100640.56;6310427;22;20214;-80
2022/11/27 08:24:17;;;;;;;11.23;9.17;;;;;;;5.21;100.00;100641.75;6282916;22;20545;-80
2022/11/27 08:26:44;;;;;;;14.20;11.47;;;;;;;5.45;100.00;100648.13;6310888;22;20205;-80
2022/11/27 08:29:11;;;;;;;12.23;10.77;;;;;;;5.65;100.00;100650.31;6310414;22;20211;-81
2022/11/27 08:31:38;;;;;;;12.07;10.10;;;;;;;5.78;100.00;100644.56;6283202;22;20777;-81
2022/11/27 08:34:05;;;;;;;10.60;8.83;;;;;;;5.94;100.00;100639.25;6230799;22;20204;-81
2022/11/27 08:36:31;;;;;;;12.40;8.33;;;;;;;6.02;100.00;100641.13;6280780;22;20241;-81
2022/11/27 08:38:58;;;;;;;9.70;8.70;;;;;;;6.17;100.00;100636.78;6279331;22;20214;-81
2022/11/27 08:41:25;;;;;;;12.23;8.27;;;;;;;6.27;100.00;100628.63;6281869;22;20731;-81
2022/11/27 08:43:51;;;;;;;11.33;8.73;;;;;;;6.33;100.00;100626.13;6280451;22;20200;-81
2022/11/27 08:46:18;;;;;;;11.13;8.87;;;;;;;6.44;100.00;100627.63;6280806;22;20687;-81
2022/11/27 08:48:45;;;;;;;10.57;8.30;;;;;;;6.64;100.00;100631.56;6280057;22;20206;-81
2022/11/27 08:51:13;;;;;;;10.30;8.30;;;;;;;6.91;100.00;100636.47;6280767;22;20213;-82
2022/11/27 08:53:42;;;;;;;9.77;7.60;;;;;;;7.08;100.00;100635.44;6253399;22;20680;-81
2022/11/27 08:56:17;;;;;;;8.70;7.23;;;;;;;7.38;100.00;100636.44;6233252;22;20272;-81
2022/11/27 08:59:04;;;;;;;8.53;7.63;;;;;;;7.68;100.00;100644.63;6293910;22;20263;-81
2022/11/27 09:01:43;;;;;;;8.47;7.13;;;;;;;7.89;100.00;100636.78;6285411;22;20212;-82
2022/11/27 09:04:11;;;;;;;9.07;7.27;;;;;;;8.01;100.00;100635.38;6295640;22;20238;-82
2022/11/27 09:06:42;;;;;;;10.20;7.03;;;;;;;8.11;100.00;100633.31;6283362;22;20223;-82
2022/11/27 09:09:15;;;;;;;8.60;7.47;;;;;;;8.25;100.00;100635.19;6282370;22;20196;-83
2022/11/27 09:11:58;;;;;;;8.80;7.27;;;;;;;8.33;100.00;100637.81;6276981;22;20234;-83
2022/11/27 09:14:29;;;;;;;8.27;7.43;;;;;;;8.40;100.00;100641.41;6260817;22;20231;-83
2022/11/27 09:16:59;;;;;;;10.20;7.63;;;;;;;8.48;100.00;100637.03;6298474;22;20600;-83
2022/11/27 09:19:33;;;;;;;9.10;6.90;;;;;;;8.49;100.00;100636.03;6300936;22;20208;-83
2022/11/27 09:22:05;;;;;;;10.03;7.27;;;;;;;8.53;100.00;100635.47;6299122;22;20265;-82
